sensor_id;sensor_type;location;lat;lon;timestamp;P1;durP1;ratioP1;P2;durP2;ratioP2
41739;SDS011;27422;52.444;13.300;2023-08-01T00:02:19;9.65;;;3.60;;
41739;SDS011;27422;52.444;13.300;2023-08-01T00:04:45;7.78;;;3.65;;
41739;SDS011;27422;52.444;13.300;2023-08-01T00:07:10;7.43;;;3.60;;
41739;SDS011;27422;52.444;13.300;2023-08-01T00:09:35;8.70;;;3.30;;
41739;SDS011;27422;52.444;13.300;2023-08-01T00:12:01;8.00;;;3.47;;
41739;SDS011;27422;52.444;13.300;2023-08-01T00:14:26;7.22;;;3.65;;
41739;SDS011;27422;52.444;13.300;2023-08-01T00:16:51;6.47;;;3.30;;
41739;SDS011;27422;52.444;13.300;2023-08-01T00:19:17;7.28;;;3.45;;
41739;SDS011;27422;52.444;13.300;2023-08-01T00:21:42;8.90;;;3.15;;
41739;SDS011;27422;52.444;13.300;2023-08-01T00:24:08;5.25;;;2.90;;
41739;SDS011;27422;52.444;13.300;2023-08-01T00:26:34;7.00;;;2.95;;
41739;SDS011;27422;52.444;13.300;2023-08-01T00:28:59;6.88;;;2.90;;
41739;SDS011;27422;52.444;13.300;2023-08-01T00:31:25;7.15;;;2.72;;
41739;SDS011;27422;52.444;13.300;2023-08-01T00:33:53;7.43;;;3.08;;
41739;SDS011;27422;52.444;13.300;2023-08-01T00:36:18;5.57;;;2.80;;
41739;SDS011;27422;52.444;13.300;2023-08-01T00:38:44;6.13;;;2.38;;
41739;SDS011;27422;52.444;13.300;2023-08-01T00:41:09;5.25;;;2.70;;
41739;SDS011;27422;52.444;13.300;2023-08-01T00:43:35;5.43;;;2.60;;
41739;SDS011;27422;52.444;13.300;2023-08-01T00:46:01;4.78;;;2.47;;
41739;SDS011;27422;52.444;13.300;2023-08-01T00:50:54;4.70;;;2.30;;
41739;SDS011;27422;52.444;13.300;2023-08-01T00:53:21;5.07;;;2.67;;
41739;SDS011;27422;52.444;13.300;2023-08-01T00:55:47;7.53;;;3.20;;
41739;SDS011;27422;52.444;13.300;2023-08-01T00:58:15;5.25;;;2.72;;
41739;SDS011;27422;52.444;13.300;2023-08-01T01:00:43;6.30;;;2.70;;
41739;SDS011;27422;52.444;13.300;2023-08-01T01:03:09;7.35;;;3.25;;
41739;SDS011;27422;52.444;13.300;2023-08-01T01:05:35;7.38;;;3.20;;
41739;SDS011;27422;52.444;13.300;2023-08-01T01:08:05;8.00;;;3.13;;
41739;SDS011;27422;52.444;13.300;2023-08-01T01:10:30;6.82;;;2.85;;
41739;SDS011;27422;52.444;13.300;2023-08-01T01:12:56;6.38;;;3.13;;
41739;SDS011;27422;52.444;13.300;2023-08-01T01:15:21;5.95;;;3.08;;
41739;SDS011;27422;52.444;13.300;2023-08-01T01:17:47;6.45;;;2.95;;
41739;SDS011;27422;52.444;13.300;2023-08-01T01:20:12;6.18;;;3.40;;
41739;SDS011;27422;52.444;13.300;2023-08-01T01:22:38;6.30;;;3.38;;
41739;SDS011;27422;52.444;13.300;2023-08-01T01:25:05;7.33;;;3.10;;
41739;SDS011;27422;52.444;13.300;2023-08-01T01:27:32;7.25;;;3.40;;
41739;SDS011;27422;52.444;13.300;2023-08-01T01:29:58;5.85;;;3.42;;
41739;SDS011;27422;52.444;13.300;2023-08-01T01:32:24;7.72;;;3.53;;
41739;SDS011;27422;52.444;13.300;2023-08-01T01:34:50;7.70;;;3.40;;
41739;SDS011;27422;52.444;13.300;2023-08-01T01:37:15;6.90;;;3.63;;
41739;SDS011;27422;52.444;13.300;2023-08-01T01:39:44;7.10;;;3.30;;
41739;SDS011;27422;52.444;13.300;2023-08-01T01:42:09;7.30;;;3.50;;
41739;SDS011;27422;52.444;13.300;2023-08-01T01:44:35;6.15;;;3.45;;
41739;SDS011;27422;52.444;13.300;2023-08-01T01:47:00;11.55;;;4.65;;
41739;SDS011;27422;52.444;13.300;2023-08-01T01:49:25;8.10;;;3.97;;
41739;SDS011;27422;52.444;13.300;2023-08-01T01:51:51;11.90;;;4.05;;
41739;SDS011;27422;52.444;13.300;2023-08-01T01:54:16;5.93;;;3.50;;
41739;SDS011;27422;52.444;13.300;2023-08-01T01:56:42;9.27;;;3.55;;
41739;SDS011;27422;52.444;13.300;2023-08-01T01:59:07;8.10;;;4.00;;
41739;SDS011;27422;52.444;13.300;2023-08-01T02:01:32;8.27;;;4.00;;
41739;SDS011;27422;52.444;13.300;2023-08-01T02:03:58;7.50;;;3.80;;
41739;SDS011;27422;52.444;13.300;2023-08-01T02:06:23;7.80;;;3.97;;
41739;SDS011;27422;52.444;13.300;2023-08-01T02:08:49;8.32;;;3.70;;
41739;SDS011;27422;52.444;13.300;2023-08-01T02:11:14;6.93;;;3.58;;
41739;SDS011;27422;52.444;13.300;2023-08-01T02:13:39;6.47;;;3.60;;
41739;SDS011;27422;52.444;13.300;2023-08-01T02:16:05;8.18;;;4.22;;
41739;SDS011;27422;52.444;13.300;2023-08-01T02:18:31;7.45;;;3.72;;
41739;SDS011;27422;52.444;13.300;2023-08-01T02:20:56;8.57;;;3.83;;
41739;SDS011;27422;52.444;13.300;2023-08-01T02:23:21;8.25;;;4.40;;
41739;SDS011;27422;52.444;13.300;2023-08-01T02:25:47;8.18;;;4.20;;
41739;SDS011;27422;52.444;13.300;2023-08-01T02:28:12;6.50;;;3.85;;
41739;SDS011;27422;52.444;13.300;2023-08-01T02:30:38;8.68;;;4.07;;
41739;SDS011;27422;52.444;13.300;2023-08-01T02:33:03;6.07;;;3.90;;
41739;SDS011;27422;52.444;13.300;2023-08-01T02:35:29;7.95;;;3.92;;
41739;SDS011;27422;52.444;13.300;2023-08-01T02:37:55;8.63;;;4.00;;
41739;SDS011;27422;52.444;13.300;2023-08-01T02:40:20;6.70;;;3.55;;
41739;SDS011;27422;52.444;13.300;2023-08-01T02:42:49;7.85;;;3.97;;
41739;SDS011;27422;52.444;13.300;2023-08-01T02:45:14;8.55;;;4.20;;
41739;SDS011;27422;52.444;13.300;2023-08-01T02:47:40;8.80;;;4.03;;
41739;SDS011;27422;52.444;13.300;2023-08-01T02:50:05;6.00;;;3.80;;
41739;SDS011;27422;52.444;13.300;2023-08-01T02:52:31;8.45;;;4.28;;
41739;SDS011;27422;52.444;13.300;2023-08-01T02:54:57;8.23;;;4.00;;
41739;SDS011;27422;52.444;13.300;2023-08-01T02:57:22;8.02;;;4.00;;
41739;SDS011;27422;52.444;13.300;2023-08-01T02:59:48;7.18;;;3.70;;
41739;SDS011;27422;52.444;13.300;2023-08-01T03:02:14;5.97;;;3.90;;
41739;SDS011;27422;52.444;13.300;2023-08-01T03:04:39;6.07;;;3.90;;
41739;SDS011;27422;52.444;13.300;2023-08-01T03:07:05;8.23;;;3.90;;
41739;SDS011;27422;52.444;13.300;2023-08-01T03:09:31;7.53;;;3.80;;
41739;SDS011;27422;52.444;13.300;2023-08-01T03:11:57;8.52;;;3.90;;
41739;SDS011;27422;52.444;13.300;2023-08-01T03:14:26;7.07;;;3.75;;
41739;SDS011;27422;52.444;13.300;2023-08-01T03:16:51;7.57;;;3.70;;
41739;SDS011;27422;52.444;13.300;2023-08-01T03:19:16;8.90;;;3.63;;
41739;SDS011;27422;52.444;13.300;2023-08-01T03:21:42;7.18;;;3.70;;
41739;SDS011;27422;52.444;13.300;2023-08-01T03:24:07;6.68;;;3.80;;
41739;SDS011;27422;52.444;13.300;2023-08-01T03:26:34;5.82;;;3.35;;
41739;SDS011;27422;52.444;13.300;2023-08-01T03:29:00;10.13;;;3.80;;
41739;SDS011;27422;52.444;13.300;2023-08-01T03:31:25;6.10;;;3.35;;
41739;SDS011;27422;52.444;13.300;2023-08-01T03:33:51;6.47;;;3.28;;
41739;SDS011;27422;52.444;13.300;2023-08-01T03:36:16;6.28;;;3.58;;
41739;SDS011;27422;52.444;13.300;2023-08-01T03:38:41;5.13;;;3.05;;
41739;SDS011;27422;52.444;13.300;2023-08-01T03:41:07;5.78;;;3.28;;
41739;SDS011;27422;52.444;13.300;2023-08-01T03:43:32;7.07;;;3.58;;
41739;SDS011;27422;52.444;13.300;2023-08-01T03:45:58;8.75;;;3.63;;
41739;SDS011;27422;52.444;13.300;2023-08-01T03:48:23;7.03;;;3.75;;
41739;SDS011;27422;52.444;13.300;2023-08-01T03:50:48;6.70;;;3.50;;
41739;SDS011;27422;52.444;13.300;2023-08-01T03:53:14;6.82;;;3.30;;
41739;SDS011;27422;52.444;13.300;2023-08-01T03:55:39;6.97;;;3.60;;
41739;SDS011;27422;52.444;13.300;2023-08-01T03:58:05;5.45;;;2.95;;
41739;SDS011;27422;52.444;13.300;2023-08-01T04:00:30;6.15;;;3.03;;
41739;SDS011;27422;52.444;13.300;2023-08-01T04:02:58;6.90;;;3.20;;
41739;SDS011;27422;52.444;13.300;2023-08-01T04:05:27;6.75;;;3.20;;
41739;SDS011;27422;52.444;13.300;2023-08-01T04:07:53;8.85;;;3.00;;
41739;SDS011;27422;52.444;13.300;2023-08-01T04:10:21;6.57;;;3.35;;
41739;SDS011;27422;52.444;13.300;2023-08-01T04:12:49;6.05;;;2.72;;
41739;SDS011;27422;52.444;13.300;2023-08-01T04:15:20;4.63;;;2.60;;
41739;SDS011;27422;52.444;13.300;2023-08-01T04:17:45;7.40;;;2.88;;
41739;SDS011;27422;52.444;13.300;2023-08-01T04:20:10;5.45;;;2.75;;
41739;SDS011;27422;52.444;13.300;2023-08-01T04:22:36;5.90;;;2.80;;
41739;SDS011;27422;52.444;13.300;2023-08-01T04:25:02;5.15;;;2.50;;
41739;SDS011;27422;52.444;13.300;2023-08-01T04:27:28;5.68;;;2.85;;
41739;SDS011;27422;52.444;13.300;2023-08-01T04:29:54;4.88;;;3.08;;
41739;SDS011;27422;52.444;13.300;2023-08-01T04:32:20;5.95;;;2.67;;
41739;SDS011;27422;52.444;13.300;2023-08-01T04:34:46;5.35;;;2.75;;
41739;SDS011;27422;52.444;13.300;2023-08-01T04:37:11;5.30;;;2.78;;
41739;SDS011;27422;52.444;13.300;2023-08-01T04:39:37;4.70;;;2.50;;
41739;SDS011;27422;52.444;13.300;2023-08-01T04:42:02;5.55;;;2.60;;
41739;SDS011;27422;52.444;13.300;2023-08-01T04:44:28;4.32;;;2.50;;
41739;SDS011;27422;52.444;13.300;2023-08-01T04:46:54;5.43;;;2.65;;
41739;SDS011;27422;52.444;13.300;2023-08-01T04:49:20;6.75;;;2.90;;
41739;SDS011;27422;52.444;13.300;2023-08-01T04:51:45;4.53;;;2.50;;
41739;SDS011;27422;52.444;13.300;2023-08-01T04:54:10;6.03;;;3.13;;
41739;SDS011;27422;52.444;13.300;2023-08-01T04:56:36;5.55;;;3.15;;
41739;SDS011;27422;52.444;13.300;2023-08-01T04:59:01;5.95;;;3.35;;
41739;SDS011;27422;52.444;13.300;2023-08-01T05:01:27;5.63;;;3.10;;
41739;SDS011;27422;52.444;13.300;2023-08-01T05:03:52;5.80;;;3.22;;
41739;SDS011;27422;52.444;13.300;2023-08-01T05:06:18;6.78;;;2.78;;
41739;SDS011;27422;52.444;13.300;2023-08-01T05:08:43;5.55;;;2.75;;
41739;SDS011;27422;52.444;13.300;2023-08-01T05:11:09;6.70;;;2.90;;
41739;SDS011;27422;52.444;13.300;2023-08-01T05:13:35;5.45;;;2.90;;
41739;SDS011;27422;52.444;13.300;2023-08-01T05:16:03;5.70;;;3.08;;
41739;SDS011;27422;52.444;13.300;2023-08-01T05:18:29;5.40;;;2.70;;
41739;SDS011;27422;52.444;13.300;2023-08-01T05:20:54;6.53;;;2.92;;
41739;SDS011;27422;52.444;13.300;2023-08-01T05:23:20;6.22;;;2.70;;
41739;SDS011;27422;52.444;13.300;2023-08-01T05:25:45;5.72;;;2.70;;
41739;SDS011;27422;52.444;13.300;2023-08-01T05:28:10;6.75;;;2.83;;
41739;SDS011;27422;52.444;13.300;2023-08-01T05:30:37;6.25;;;2.80;;
41739;SDS011;27422;52.444;13.300;2023-08-01T05:33:02;5.65;;;2.60;;
41739;SDS011;27422;52.444;13.300;2023-08-01T05:35:28;5.22;;;2.90;;
41739;SDS011;27422;52.444;13.300;2023-08-01T05:37:53;5.13;;;2.67;;
41739;SDS011;27422;52.444;13.300;2023-08-01T05:40:18;4.93;;;2.78;;
41739;SDS011;27422;52.444;13.300;2023-08-01T05:42:44;5.97;;;2.90;;
41739;SDS011;27422;52.444;13.300;2023-08-01T05:45:09;9.48;;;2.70;;
41739;SDS011;27422;52.444;13.300;2023-08-01T05:47:36;5.70;;;2.92;;
41739;SDS011;27422;52.444;13.300;2023-08-01T05:50:02;4.63;;;2.50;;
41739;SDS011;27422;52.444;13.300;2023-08-01T05:52:27;5.60;;;2.85;;
41739;SDS011;27422;52.444;13.300;2023-08-01T05:54:53;5.97;;;2.58;;
41739;SDS011;27422;52.444;13.300;2023-08-01T05:57:18;4.85;;;2.60;;
41739;SDS011;27422;52.444;13.300;2023-08-01T05:59:44;5.13;;;2.53;;
41739;SDS011;27422;52.444;13.300;2023-08-01T06:02:09;5.35;;;2.55;;
41739;SDS011;27422;52.444;13.300;2023-08-01T06:04:35;4.63;;;2.55;;
41739;SDS011;27422;52.444;13.300;2023-08-01T06:07:00;4.30;;;2.33;;
41739;SDS011;27422;52.444;13.300;2023-08-01T06:09:26;5.68;;;2.47;;
41739;SDS011;27422;52.444;13.300;2023-08-01T06:11:51;5.38;;;2.40;;
41739;SDS011;27422;52.444;13.300;2023-08-01T06:14:17;5.15;;;2.20;;
41739;SDS011;27422;52.444;13.300;2023-08-01T06:16:42;6.50;;;2.63;;
41739;SDS011;27422;52.444;13.300;2023-08-01T06:19:08;6.63;;;2.35;;
41739;SDS011;27422;52.444;13.300;2023-08-01T06:21:33;4.28;;;2.30;;
41739;SDS011;27422;52.444;13.300;2023-08-01T06:23:58;5.07;;;2.58;;
41739;SDS011;27422;52.444;13.300;2023-08-01T06:26:24;5.93;;;2.25;;
41739;SDS011;27422;52.444;13.300;2023-08-01T06:28:49;4.90;;;2.47;;
41739;SDS011;27422;52.444;13.300;2023-08-01T06:31:18;4.28;;;2.40;;
41739;SDS011;27422;52.444;13.300;2023-08-01T06:33:43;7.85;;;2.28;;
41739;SDS011;27422;52.444;13.300;2023-08-01T06:36:09;5.20;;;2.05;;
41739;SDS011;27422;52.444;13.300;2023-08-01T06:38:34;4.65;;;2.60;;
41739;SDS011;27422;52.444;13.300;2023-08-01T06:40:59;4.57;;;2.38;;
41739;SDS011;27422;52.444;13.300;2023-08-01T06:43:25;4.13;;;2.15;;
41739;SDS011;27422;52.444;13.300;2023-08-01T06:45:50;4.80;;;2.35;;
41739;SDS011;27422;52.444;13.300;2023-08-01T06:48:16;5.35;;;2.63;;
41739;SDS011;27422;52.444;13.300;2023-08-01T06:50:41;6.57;;;2.58;;
41739;SDS011;27422;52.444;13.300;2023-08-01T06:53:06;4.78;;;2.33;;
41739;SDS011;27422;52.444;13.300;2023-08-01T06:55:33;4.60;;;2.10;;
41739;SDS011;27422;52.444;13.300;2023-08-01T06:58:02;4.10;;;2.20;;
41739;SDS011;27422;52.444;13.300;2023-08-01T07:00:27;4.38;;;2.17;;
41739;SDS011;27422;52.444;13.300;2023-08-01T07:02:52;5.30;;;2.13;;
41739;SDS011;27422;52.444;13.300;2023-08-01T07:05:18;3.78;;;2.10;;
41739;SDS011;27422;52.444;13.300;2023-08-01T07:07:43;4.70;;;2.35;;
41739;SDS011;27422;52.444;13.300;2023-08-01T07:10:09;4.85;;;2.10;;
41739;SDS011;27422;52.444;13.300;2023-08-01T07:12:35;4.07;;;2.00;;
41739;SDS011;27422;52.444;13.300;2023-08-01T07:15:00;4.72;;;1.88;;
41739;SDS011;27422;52.444;13.300;2023-08-01T07:17:26;4.38;;;2.42;;
41739;SDS011;27422;52.444;13.300;2023-08-01T07:19:54;3.40;;;1.90;;
41739;SDS011;27422;52.444;13.300;2023-08-01T07:22:20;3.47;;;1.77;;
41739;SDS011;27422;52.444;13.300;2023-08-01T07:24:45;3.88;;;2.03;;
41739;SDS011;27422;52.444;13.300;2023-08-01T07:27:11;3.90;;;1.90;;
41739;SDS011;27422;52.444;13.300;2023-08-01T07:29:37;4.20;;;1.90;;
41739;SDS011;27422;52.444;13.300;2023-08-01T07:32:05;4.32;;;1.90;;
41739;SDS011;27422;52.444;13.300;2023-08-01T07:34:31;4.53;;;2.00;;
41739;SDS011;27422;52.444;13.300;2023-08-01T07:36:56;3.90;;;1.88;;
41739;SDS011;27422;52.444;13.300;2023-08-01T07:39:22;5.55;;;1.63;;
41739;SDS011;27422;52.444;13.300;2023-08-01T07:41:47;3.45;;;1.77;;
41739;SDS011;27422;52.444;13.300;2023-08-01T07:44:13;5.15;;;1.90;;
41739;SDS011;27422;52.444;13.300;2023-08-01T07:46:38;3.22;;;1.63;;
41739;SDS011;27422;52.444;13.300;2023-08-01T07:49:03;3.88;;;1.65;;
41739;SDS011;27422;52.444;13.300;2023-08-01T07:51:29;4.78;;;1.73;;
41739;SDS011;27422;52.444;13.300;2023-08-01T07:53:58;6.68;;;2.30;;
41739;SDS011;27422;52.444;13.300;2023-08-01T07:56:24;3.33;;;1.70;;
41739;SDS011;27422;52.444;13.300;2023-08-01T07:58:50;3.85;;;1.60;;
41739;SDS011;27422;52.444;13.300;2023-08-01T08:01:15;2.80;;;1.48;;
41739;SDS011;27422;52.444;13.300;2023-08-01T08:03:41;4.20;;;1.60;;
41739;SDS011;27422;52.444;13.300;2023-08-01T08:06:06;9.70;;;2.05;;
41739;SDS011;27422;52.444;13.300;2023-08-01T08:08:32;4.32;;;1.40;;
41739;SDS011;27422;52.444;13.300;2023-08-01T08:11:01;3.63;;;1.58;;
41739;SDS011;27422;52.444;13.300;2023-08-01T08:13:28;5.25;;;1.40;;
41739;SDS011;27422;52.444;13.300;2023-08-01T08:15:56;2.42;;;1.20;;
41739;SDS011;27422;52.444;13.300;2023-08-01T08:18:22;3.53;;;1.45;;
41739;SDS011;27422;52.444;13.300;2023-08-01T08:20:47;3.42;;;1.23;;
41739;SDS011;27422;52.444;13.300;2023-08-01T08:23:13;3.97;;;1.55;;
41739;SDS011;27422;52.444;13.300;2023-08-01T08:25:44;3.13;;;1.65;;
41739;SDS011;27422;52.444;13.300;2023-08-01T08:28:13;4.05;;;1.20;;
41739;SDS011;27422;52.444;13.300;2023-08-01T08:30:38;2.55;;;1.20;;
41739;SDS011;27422;52.444;13.300;2023-08-01T08:33:04;2.78;;;1.10;;
41739;SDS011;27422;52.444;13.300;2023-08-01T08:35:34;4.07;;;1.13;;
41739;SDS011;27422;52.444;13.300;2023-08-01T08:38:02;2.70;;;1.10;;
41739;SDS011;27422;52.444;13.300;2023-08-01T08:40:31;2.17;;;1.00;;
41739;SDS011;27422;52.444;13.300;2023-08-01T08:42:58;3.38;;;1.02;;
41739;SDS011;27422;52.444;13.300;2023-08-01T08:45:26;2.45;;;1.13;;
41739;SDS011;27422;52.444;13.300;2023-08-01T08:48:00;2.97;;;1.30;;
41739;SDS011;27422;52.444;13.300;2023-08-01T08:50:27;2.30;;;1.10;;
41739;SDS011;27422;52.444;13.300;2023-08-01T08:55:20;3.43;;;0.93;;
41739;SDS011;27422;52.444;13.300;2023-08-01T08:57:48;1.90;;;0.80;;
41739;SDS011;27422;52.444;13.300;2023-08-01T09:00:17;4.32;;;0.95;;
41739;SDS011;27422;52.444;13.300;2023-08-01T09:02:43;3.20;;;0.90;;
41739;SDS011;27422;52.444;13.300;2023-08-01T09:05:08;2.35;;;0.70;;
41739;SDS011;27422;52.444;13.300;2023-08-01T09:07:34;1.60;;;0.70;;
41739;SDS011;27422;52.444;13.300;2023-08-01T09:10:03;2.40;;;0.63;;
41739;SDS011;27422;52.444;13.300;2023-08-01T09:12:29;1.80;;;0.77;;
41739;SDS011;27422;52.444;13.300;2023-08-01T09:14:59;2.17;;;0.85;;
41739;SDS011;27422;52.444;13.300;2023-08-01T09:17:24;2.72;;;0.63;;
41739;SDS011;27422;52.444;13.300;2023-08-01T09:19:54;2.17;;;0.70;;
41739;SDS011;27422;52.444;13.300;2023-08-01T09:22:45;1.63;;;0.60;;
41739;SDS011;27422;52.444;13.300;2023-08-01T09:25:11;2.17;;;0.52;;
41739;SDS011;27422;52.444;13.300;2023-08-01T09:27:38;1.67;;;0.52;;
41739;SDS011;27422;52.444;13.300;2023-08-01T09:30:09;2.58;;;0.70;;
41739;SDS011;27422;52.444;13.300;2023-08-01T09:32:50;1.88;;;0.65;;
41739;SDS011;27422;52.444;13.300;2023-08-01T09:35:19;1.65;;;0.60;;
41739;SDS011;27422;52.444;13.300;2023-08-01T09:37:45;1.52;;;0.68;;
41739;SDS011;27422;52.444;13.300;2023-08-01T09:40:10;2.03;;;0.60;;
41739;SDS011;27422;52.444;13.300;2023-08-01T09:42:40;1.58;;;0.60;;
41739;SDS011;27422;52.444;13.300;2023-08-01T09:45:13;2.78;;;0.43;;
41739;SDS011;27422;52.444;13.300;2023-08-01T09:47:39;2.10;;;0.52;;
41739;SDS011;27422;52.444;13.300;2023-08-01T09:50:05;0.88;;;0.40;;
41739;SDS011;27422;52.444;13.300;2023-08-01T09:52:33;2.38;;;0.40;;
41739;SDS011;27422;52.444;13.300;2023-08-01T09:54:59;2.50;;;0.70;;
41739;SDS011;27422;52.444;13.300;2023-08-01T09:57:25;1.52;;;0.50;;
41739;SDS011;27422;52.444;13.300;2023-08-01T09:59:53;1.77;;;0.50;;
41739;SDS011;27422;52.444;13.300;2023-08-01T10:02:25;2.22;;;0.47;;
41739;SDS011;27422;52.444;13.300;2023-08-01T10:04:57;1.83;;;0.50;;
41739;SDS011;27422;52.444;13.300;2023-08-01T10:07:23;1.23;;;0.47;;
41739;SDS011;27422;52.444;13.300;2023-08-01T10:09:51;3.00;;;0.93;;
41739;SDS011;27422;52.444;13.300;2023-08-01T10:12:22;1.95;;;0.50;;
41739;SDS011;27422;52.444;13.300;2023-08-01T10:14:51;1.90;;;0.60;;
41739;SDS011;27422;52.444;13.300;2023-08-01T10:17:17;1.63;;;0.52;;
41739;SDS011;27422;52.444;13.300;2023-08-01T10:19:43;2.58;;;0.65;;
41739;SDS011;27422;52.444;13.300;2023-08-01T10:22:09;1.33;;;0.60;;
41739;SDS011;27422;52.444;13.300;2023-08-01T10:24:37;2.13;;;0.60;;
41739;SDS011;27422;52.444;13.300;2023-08-01T10:27:10;2.10;;;0.60;;
41739;SDS011;27422;52.444;13.300;2023-08-01T10:32:14;1.50;;;0.38;;
41739;SDS011;27422;52.444;13.300;2023-08-01T10:34:50;1.42;;;0.40;;
41739;SDS011;27422;52.444;13.300;2023-08-01T10:37:16;1.52;;;0.30;;
41739;SDS011;27422;52.444;13.300;2023-08-01T10:39:41;1.35;;;0.40;;
41739;SDS011;27422;52.444;13.300;2023-08-01T10:42:06;1.40;;;0.40;;
41739;SDS011;27422;52.444;13.300;2023-08-01T10:44:32;2.38;;;0.50;;
41739;SDS011;27422;52.444;13.300;2023-08-01T10:47:01;3.00;;;0.70;;
41739;SDS011;27422;52.444;13.300;2023-08-01T10:49:37;1.55;;;0.60;;
41739;SDS011;27422;52.444;13.300;2023-08-01T10:52:22;1.75;;;0.57;;
41739;SDS011;27422;52.444;13.300;2023-08-01T10:55:01;2.35;;;0.80;;
41739;SDS011;27422;52.444;13.300;2023-08-01T10:57:28;4.03;;;0.90;;
41739;SDS011;27422;52.444;13.300;2023-08-01T10:59:57;3.03;;;1.13;;
41739;SDS011;27422;52.444;13.300;2023-08-01T11:02:24;2.30;;;0.63;;
41739;SDS011;27422;52.444;13.300;2023-08-01T11:07:21;4.75;;;1.00;;
41739;SDS011;27422;52.444;13.300;2023-08-01T11:10:00;1.95;;;0.70;;
41739;SDS011;27422;52.444;13.300;2023-08-01T11:12:38;1.48;;;0.60;;
41739;SDS011;27422;52.444;13.300;2023-08-01T11:15:05;3.08;;;0.80;;
41739;SDS011;27422;52.444;13.300;2023-08-01T11:17:33;3.10;;;0.70;;
41739;SDS011;27422;52.444;13.300;2023-08-01T11:20:06;1.80;;;0.68;;
41739;SDS011;27422;52.444;13.300;2023-08-01T11:22:36;3.13;;;0.80;;
41739;SDS011;27422;52.444;13.300;2023-08-01T11:25:02;2.88;;;1.27;;
41739;SDS011;27422;52.444;13.300;2023-08-01T11:27:28;4.07;;;1.60;;
41739;SDS011;27422;52.444;13.300;2023-08-01T11:29:57;3.35;;;1.30;;
41739;SDS011;27422;52.444;13.300;2023-08-01T11:32:34;4.57;;;1.50;;
41739;SDS011;27422;52.444;13.300;2023-08-01T11:35:01;4.03;;;1.40;;
41739;SDS011;27422;52.444;13.300;2023-08-01T11:37:26;5.97;;;1.92;;
41739;SDS011;27422;52.444;13.300;2023-08-01T11:39:52;4.57;;;1.88;;
41739;SDS011;27422;52.444;13.300;2023-08-01T11:42:20;4.32;;;1.60;;
41739;SDS011;27422;52.444;13.300;2023-08-01T11:44:45;3.33;;;1.50;;
41739;SDS011;27422;52.444;13.300;2023-08-01T11:47:14;3.88;;;1.92;;
41739;SDS011;27422;52.444;13.300;2023-08-01T11:49:46;4.75;;;1.90;;
41739;SDS011;27422;52.444;13.300;2023-08-01T11:52:25;3.30;;;1.83;;
41739;SDS011;27422;52.444;13.300;2023-08-01T11:54:51;6.57;;;2.00;;
41739;SDS011;27422;52.444;13.300;2023-08-01T11:57:17;4.13;;;2.10;;
41739;SDS011;27422;52.444;13.300;2023-08-01T11:59:52;5.53;;;1.98;;
41739;SDS011;27422;52.444;13.300;2023-08-01T12:02:25;4.45;;;1.95;;
41739;SDS011;27422;52.444;13.300;2023-08-01T12:04:52;4.57;;;2.10;;
41739;SDS011;27422;52.444;13.300;2023-08-01T12:07:18;3.95;;;2.08;;
41739;SDS011;27422;52.444;13.300;2023-08-01T12:09:44;5.03;;;2.63;;
41739;SDS011;27422;52.444;13.300;2023-08-01T12:12:14;4.45;;;1.95;;
41739;SDS011;27422;52.444;13.300;2023-08-01T12:14:40;3.97;;;1.98;;
41739;SDS011;27422;52.444;13.300;2023-08-01T12:17:06;3.95;;;2.00;;
41739;SDS011;27422;52.444;13.300;2023-08-01T12:19:31;4.80;;;2.20;;
41739;SDS011;27422;52.444;13.300;2023-08-01T12:21:58;5.38;;;2.30;;
41739;SDS011;27422;52.444;13.300;2023-08-01T12:24:27;5.55;;;2.10;;
41739;SDS011;27422;52.444;13.300;2023-08-01T12:26:53;6.53;;;2.60;;
41739;SDS011;27422;52.444;13.300;2023-08-01T12:29:18;4.38;;;2.15;;
41739;SDS011;27422;52.444;13.300;2023-08-01T12:31:43;4.82;;;2.10;;
41739;SDS011;27422;52.444;13.300;2023-08-01T12:34:10;5.10;;;2.20;;
41739;SDS011;27422;52.444;13.300;2023-08-01T12:36:36;5.82;;;2.20;;
41739;SDS011;27422;52.444;13.300;2023-08-01T12:39:01;5.32;;;2.40;;
41739;SDS011;27422;52.444;13.300;2023-08-01T12:41:27;5.78;;;2.55;;
41739;SDS011;27422;52.444;13.300;2023-08-01T12:43:52;5.32;;;2.20;;
41739;SDS011;27422;52.444;13.300;2023-08-01T12:46:18;5.15;;;2.30;;
41739;SDS011;27422;52.444;13.300;2023-08-01T12:48:43;3.97;;;2.00;;
41739;SDS011;27422;52.444;13.300;2023-08-01T12:51:09;4.78;;;2.35;;
41739;SDS011;27422;52.444;13.300;2023-08-01T12:53:34;3.65;;;1.90;;
41739;SDS011;27422;52.444;13.300;2023-08-01T12:56:00;4.18;;;2.10;;
41739;SDS011;27422;52.444;13.300;2023-08-01T12:58:25;6.45;;;1.95;;
41739;SDS011;27422;52.444;13.300;2023-08-01T13:00:51;5.75;;;1.90;;
41739;SDS011;27422;52.444;13.300;2023-08-01T13:03:17;4.47;;;2.17;;
41739;SDS011;27422;52.444;13.300;2023-08-01T13:05:42;4.88;;;2.13;;
41739;SDS011;27422;52.444;13.300;2023-08-01T13:08:08;4.72;;;2.10;;
41739;SDS011;27422;52.444;13.300;2023-08-01T13:10:36;5.30;;;1.95;;
41739;SDS011;27422;52.444;13.300;2023-08-01T13:13:03;4.65;;;1.83;;
41739;SDS011;27422;52.444;13.300;2023-08-01T13:15:28;4.88;;;1.98;;
41739;SDS011;27422;52.444;13.300;2023-08-01T13:17:54;4.65;;;1.98;;
41739;SDS011;27422;52.444;13.300;2023-08-01T13:20:19;4.00;;;1.80;;
41739;SDS011;27422;52.444;13.300;2023-08-01T13:22:45;5.63;;;1.95;;
41739;SDS011;27422;52.444;13.300;2023-08-01T13:25:12;4.53;;;1.90;;
41739;SDS011;27422;52.444;13.300;2023-08-01T13:27:38;6.50;;;2.10;;
41739;SDS011;27422;52.444;13.300;2023-08-01T13:30:04;4.15;;;1.98;;
41739;SDS011;27422;52.444;13.300;2023-08-01T13:32:29;8.65;;;2.35;;
41739;SDS011;27422;52.444;13.300;2023-08-01T13:34:58;5.90;;;1.70;;
41739;SDS011;27422;52.444;13.300;2023-08-01T13:37:23;6.00;;;1.90;;
41739;SDS011;27422;52.444;13.300;2023-08-01T13:39:49;4.32;;;1.63;;
41739;SDS011;27422;52.444;13.300;2023-08-01T13:42:14;4.95;;;2.08;;
41739;SDS011;27422;52.444;13.300;2023-08-01T13:44:40;3.53;;;1.70;;
41739;SDS011;27422;52.444;13.300;2023-08-01T13:47:06;4.32;;;1.90;;
41739;SDS011;27422;52.444;13.300;2023-08-01T13:49:32;3.92;;;1.85;;
41739;SDS011;27422;52.444;13.300;2023-08-01T13:51:58;4.40;;;1.90;;
41739;SDS011;27422;52.444;13.300;2023-08-01T13:54:24;5.35;;;1.90;;
41739;SDS011;27422;52.444;13.300;2023-08-01T13:56:49;4.28;;;1.80;;
41739;SDS011;27422;52.444;13.300;2023-08-01T13:59:15;3.92;;;1.80;;
41739;SDS011;27422;52.444;13.300;2023-08-01T14:01:40;3.90;;;1.70;;
41739;SDS011;27422;52.444;13.300;2023-08-01T14:04:08;5.22;;;2.08;;
41739;SDS011;27422;52.444;13.300;2023-08-01T14:06:34;6.95;;;2.00;;
41739;SDS011;27422;52.444;13.300;2023-08-01T14:08:59;4.75;;;1.60;;
41739;SDS011;27422;52.444;13.300;2023-08-01T14:11:25;3.30;;;1.52;;
41739;SDS011;27422;52.444;13.300;2023-08-01T14:13:51;4.35;;;1.70;;
41739;SDS011;27422;52.444;13.300;2023-08-01T14:16:19;6.18;;;1.80;;
41739;SDS011;27422;52.444;13.300;2023-08-01T14:18:44;5.55;;;2.30;;
41739;SDS011;27422;52.444;13.300;2023-08-01T14:21:10;4.10;;;1.65;;
41739;SDS011;27422;52.444;13.300;2023-08-01T14:23:35;4.05;;;1.83;;
41739;SDS011;27422;52.444;13.300;2023-08-01T14:26:03;5.15;;;1.90;;
41739;SDS011;27422;52.444;13.300;2023-08-01T14:28:29;3.78;;;1.80;;
41739;SDS011;27422;52.444;13.300;2023-08-01T14:30:54;4.03;;;1.88;;
41739;SDS011;27422;52.444;13.300;2023-08-01T14:33:20;3.65;;;1.50;;
41739;SDS011;27422;52.444;13.300;2023-08-01T14:35:46;3.78;;;1.60;;
41739;SDS011;27422;52.444;13.300;2023-08-01T14:38:11;3.85;;;1.60;;
41739;SDS011;27422;52.444;13.300;2023-08-01T14:40:37;3.33;;;1.48;;